Time;durP1;ratioP1;P1;durP2;ratioP2;P2;SDS_P1;SDS_P2;PMS_P1;PMS_P2;Temp;Humidity;BMP_temperature;BMP_pressure;BME280_temperature;BME280_humidity;BME280_pressure;Samples;Min_cycle;Max_cycle;Signal;HPM_P1;HPM_P2
2022/11/24 00:01:30;;;;;;;18.80;15.13;;;;;;;2.51;100.00;95331.50;5014515;28;20434;-75
2022/11/24 00:04:02;;;;;;;21.47;15.40;;;;;;;2.55;100.00;95343.69;5031881;28;20820;-74
2022/11/24 00:06:30;;;;;;;18.00;13.80;;;;;;;2.48;100.00;95330.28;5018986;28;20564;-74
2022/11/24 00:08:57;;;;;;;25.50;16.00;;;;;;;2.79;100.00;95355.59;5031753;28;20458;-74
2022/11/24 00:11:27;;;;;;;26.53;16.43;;;;;;;2.89;100.00;95363.94;5031860;28;20842;-74
2022/11/24 00:13:55;;;;;;;22.10;14.43;;;;;;;2.70;100.00;95347.75;5031728;28;20513;-74
2022/11/24 00:16:24;;;;;;;22.73;15.40;;;;;;;2.95;100.00;95375.81;5040251;28;20784;-74
2022/11/24 00:18:53;;;;;;;22.17;16.40;;;;;;;3.05;100.00;95382.59;5049353;28;20469;-73
2022/11/24 00:21:20;;;;;;;17.90;13.60;;;;;;;3.03;100.00;95376.13;5033001;28;20446;-74
2022/11/24 00:23:48;;;;;;;20.73;13.20;;;;;;;2.79;100.00;95350.38;5015198;28;20525;-74
2022/11/24 00:26:29;;;;;;;19.93;15.03;;;;;;;2.69;100.00;95343.59;5041262;28;20425;-74
2022/11/24 00:28:59;;;;;;;20.60;14.50;;;;;;;2.82;100.00;95376.66;5033353;28;20489;-74
2022/11/24 00:31:27;;;;;;;22.10;15.63;;;;;;;2.93;100.00;95379.75;5011848;28;20549;-74
2022/11/24 00:33:56;;;;;;;24.07;15.80;;;;;;;2.91;100.00;95374.84;5036802;28;20901;-73
2022/11/24 00:36:26;;;;;;;19.43;13.60;;;;;;;2.89;100.00;95384.81;5051365;28;20431;-73
2022/11/24 00:38:54;;;;;;;22.60;15.43;;;;;;;2.66;100.00;95359.81;5033064;28;20454;-73
2022/11/24 00:41:22;;;;;;;20.80;14.57;;;;;;;2.80;100.00;95391.06;5031339;28;20435;-73
2022/11/24 00:43:49;;;;;;;18.23;14.17;;;;;;;2.76;100.00;95380.47;5037815;28;20802;-73
2022/11/24 00:46:16;;;;;;;21.20;14.67;;;;;;;2.72;100.00;95369.09;5038898;28;20426;-73
2022/11/24 00:48:44;;;;;;;22.43;15.27;;;;;;;2.84;100.00;95392.78;5031140;28;20454;-73
2022/11/24 00:51:13;;;;;;;22.73;14.73;;;;;;;2.61;100.00;95362.56;5014699;28;21153;-73
2022/11/24 00:53:40;;;;;;;19.80;14.43;;;;;;;2.92;100.00;95394.66;5031412;28;20793;-73
2022/11/24 00:56:08;;;;;;;21.10;13.50;;;;;;;2.80;100.00;95372.78;5032448;28;20776;-74
2022/11/24 00:58:36;;;;;;;17.00;12.47;;;;;;;3.05;100.00;95400.88;5031104;28;20489;-74
2022/11/24 01:01:11;;;;;;;19.17;12.97;;;;;;;3.08;100.00;95400.28;5032120;28;20811;-74
2022/11/24 01:03:38;;;;;;;19.13;12.90;;;;;;;3.25;100.00;95405.56;5011250;28;20473;-74
2022/11/24 01:06:20;;;;;;;14.90;11.97;;;;;;;3.20;100.00;95418.75;5030893;28;20822;-74
2022/11/24 01:08:47;;;;;;;19.07;13.20;;;;;;;3.16;100.00;95415.19;5008093;28;21068;-74
2022/11/24 01:11:16;;;;;;;15.13;10.63;;;;;;;3.13;100.00;95420.25;5030849;28;20442;-74
2022/11/24 01:13:45;;;;;;;19.00;12.00;;;;;;;3.13;100.00;95433.31;5030625;28;20434;-74
2022/11/24 01:16:41;;;;;;;19.57;11.43;;;;;;;3.05;100.00;95434.03;5023750;28;20941;-74
2022/11/24 01:19:07;;;;;;;15.80;11.47;;;;;;;2.89;100.00;95431.81;5021717;28;20465;-74
2022/11/24 01:21:34;;;;;;;16.90;11.93;;;;;;;2.96;100.00;95426.94;5031766;28;20455;-75
2022/11/24 01:24:01;;;;;;;15.40;11.83;;;;;;;3.01;100.00;95425.28;5030375;28;20434;-75
2022/11/24 01:26:27;;;;;;;13.43;10.90;;;;;;;2.74;100.00;95387.06;5030444;28;20445;-74
2022/11/24 01:28:56;;;;;;;17.33;12.30;;;;;;;2.97;100.00;95433.72;5031632;28;20450;-74
2022/11/24 01:31:24;;;;;;;16.83;12.63;;;;;;;2.89;100.00;95436.25;5030278;28;20448;-74
2022/11/24 01:33:51;;;;;;;16.17;13.10;;;;;;;2.76;100.00;95413.63;5030222;28;20443;-74
2022/11/24 01:36:18;;;;;;;15.40;12.57;;;;;;;2.89;100.00;95433.66;5031524;28;20430;-74
2022/11/24 01:38:45;;;;;;;13.90;10.73;;;;;;;2.92;100.00;95440.88;5030413;28;20831;-74
2022/11/24 01:41:18;;;;;;;14.50;10.70;;;;;;;3.01;100.00;95449.53;5029991;28;20438;-74
2022/11/24 01:43:45;;;;;;;13.83;11.17;;;;;;;2.94;100.00;95434.31;5010445;28;20434;-74
2022/11/24 01:46:18;;;;;;;16.23;11.30;;;;;;;2.99;100.00;95449.06;5022783;28;20480;-75
2022/11/24 01:49:01;;;;;;;11.70;9.07;;;;;;;2.97;100.00;95446.00;5013677;28;20549;-75
2022/11/24 01:51:32;;;;;;;18.40;11.60;;;;;;;2.84;100.00;95429.34;5030103;28;20506;-74
2022/11/24 01:54:10;;;;;;;19.33;10.73;;;;;;;2.94;100.00;95464.88;5013714;28;20732;-74
2022/11/24 01:56:40;;;;;;;12.67;9.23;;;;;;;2.68;100.00;95422.94;5043362;28;20453;-74
2022/11/24 01:59:11;;;;;;;13.57;10.40;;;;;;;2.83;100.00;95447.91;5031111;28;21063;-73
2022/11/24 02:01:37;;;;;;;10.80;9.67;;;;;;;2.70;100.00;95438.31;5017044;28;20448;-74
2022/11/24 02:04:09;;;;;;;10.63;9.50;;;;;;;2.74;100.00;95447.84;5030962;28;20438;-74
2022/11/24 02:06:38;;;;;;;14.67;10.90;;;;;;;2.81;100.00;95465.72;5029611;28;20434;-74
2022/11/24 02:09:24;;;;;;;12.03;10.77;;;;;;;2.85;100.00;95479.69;5030917;28;20926;-74
2022/11/24 02:11:53;;;;;;;21.80;9.97;;;;;;;2.87;100.00;95475.72;5038651;28;20435;-74
2022/11/24 02:14:21;;;;;;;13.87;10.30;;;;;;;2.79;100.00;95470.44;5030967;28;20441;-74
2022/11/24 02:16:49;;;;;;;12.13;9.20;;;;;;;2.77;100.00;95456.91;5013134;28;20430;-74
2022/11/24 02:19:40;;;;;;;13.63;8.87;;;;;;;2.86;100.00;95476.00;5029349;28;20458;-74
2022/11/24 02:22:24;;;;;;;12.77;8.90;;;;;;;2.63;100.00;95449.16;5029250;28;20441;-74
2022/11/24 02:24:58;;;;;;;11.87;8.30;;;;;;;2.77;100.00;95465.50;5040226;28;20819;-74
2022/11/24 02:27:25;;;;;;;14.67;9.10;;;;;;;2.60;100.00;95444.53;5030384;28;20465;-75
2022/11/24 02:29:51;;;;;;;9.30;8.30;;;;;;;2.75;100.00;95464.28;5029323;28;20827;-74
2022/11/24 02:32:19;;;;;;;10.67;8.20;;;;;;;2.78;100.00;95466.28;5029494;28;20439;-74
2022/11/24 02:34:45;;;;;;;12.17;9.43;;;;;;;2.78;100.00;95464.44;5029432;28;20435;-73
2022/11/24 02:37:12;;;;;;;12.20;10.03;;;;;;;2.65;100.00;95442.56;5036046;28;20449;-73
2022/11/24 02:39:39;;;;;;;13.50;9.53;;;;;;;2.82;100.00;95473.25;5050504;28;20815;-73
2022/11/24 02:42:11;;;;;;;14.60;9.60;;;;;;;2.67;100.00;95447.47;5009725;28;20430;-73
2022/11/24 02:44:44;;;;;;;10.83;9.00;;;;;;;2.65;100.00;95434.72;5024999;28;20503;-73
2022/11/24 02:47:12;;;;;;;11.03;8.63;;;;;;;2.94;100.00;95480.53;5029563;28;20529;-74
2022/11/24 02:49:39;;;;;;;9.03;7.03;;;;;;;2.87;100.00;95459.28;5044451;28;20993;-74
2022/11/24 02:52:06;;;;;;;7.50;6.40;;;;;;;3.10;100.00;95488.75;5049324;28;20529;-74
2022/11/24 02:54:33;;;;;;;7.97;6.00;;;;;;;2.89;100.00;95455.31;5033324;28;20718;-74
2022/11/24 02:57:00;;;;;;;9.07;6.70;;;;;;;2.80;100.00;95448.47;5012856;28;20512;-74
2022/11/24 02:59:27;;;;;;;9.53;7.77;;;;;;;2.97;100.00;95480.69;5029576;28;20442;-74
2022/11/24 03:01:54;;;;;;;8.30;7.50;;;;;;;3.04;100.00;95488.09;5029354;28;20438;-74
2022/11/24 03:04:20;;;;;;;6.50;5.37;;;;;;;2.85;100.00;95449.16;5028966;28;20450;-74
2022/11/24 03:06:47;;;;;;;6.40;5.23;;;;;;;3.08;100.00;95470.00;5012650;28;20433;-74
2022/11/24 03:09:14;;;;;;;6.07;5.47;;;;;;;3.02;100.00;95460.75;5012649;28;20970;-73
2022/11/24 03:11:41;;;;;;;13.03;5.17;;;;;;;3.25;100.00;95504.06;5022602;28;20821;-74
2022/11/24 03:14:07;;;;;;;6.67;5.63;;;;;;;3.34;100.00;95507.50;5050150;28;20429;-74
2022/11/24 03:16:34;;;;;;;6.60;5.23;;;;;;;3.04;100.00;95458.59;5050158;28;20448;-74
2022/11/24 03:19:02;;;;;;;8.90;5.10;;;;;;;3.44;100.00;95515.03;5032922;28;20454;-74
2022/11/24 03:21:29;;;;;;;6.27;5.00;;;;;;;3.42;100.00;95506.75;5028806;28;21015;-74
2022/11/24 03:23:55;;;;;;;7.90;5.90;;;;;;;3.48;100.00;95510.00;5043372;28;20440;-74
2022/11/24 03:26:23;;;;;;;6.47;5.13;;;;;;;3.70;100.00;95517.78;5028638;28;20463;-74
2022/11/24 03:28:55;;;;;;;11.00;7.17;;;;;;;3.87;100.00;95517.06;5034832;28;20445;-74
2022/11/24 03:31:22;;;;;;;8.90;5.33;;;;;;;3.95;100.00;95524.16;5020735;28;20460;-74
2022/11/24 03:33:50;;;;;;;12.97;6.43;;;;;;;3.98;100.00;95535.88;5034151;28;20441;-74
2022/11/24 03:36:16;;;;;;;10.30;4.40;;;;;;;3.89;100.00;95519.41;5050229;28;20818;-74
2022/11/24 03:38:43;;;;;;;7.53;4.77;;;;;;;3.82;100.00;95541.50;5052212;28;20460;-73
2022/11/24 03:41:10;;;;;;;8.20;4.17;;;;;;;3.42;100.00;95498.13;5040056;28;20445;-73
2022/11/24 03:43:37;;;;;;;10.43;5.17;;;;;;;3.48;100.00;95518.63;5032266;28;20930;-73
2022/11/24 03:46:10;;;;;;;5.23;4.73;;;;;;;3.58;100.00;95529.88;5016782;28;20454;-73
2022/11/24 03:48:37;;;;;;;6.67;4.70;;;;;;;3.46;100.00;95530.41;5035355;28;20934;-73
2022/11/24 03:51:04;;;;;;;12.70;5.27;;;;;;;3.49;100.00;95543.69;5033483;28;20523;-73
2022/11/24 03:53:32;;;;;;;7.77;4.47;;;;;;;3.43;100.00;95528.41;5032201;28;20527;-74
2022/11/24 03:56:00;;;;;;;6.00;5.23;;;;;;;3.47;100.00;95540.59;5015700;28;20456;-74
2022/11/24 03:58:27;;;;;;;13.53;4.97;;;;;;;3.39;100.00;95511.81;5033653;28;20859;-74
2022/11/24 04:00:55;;;;;;;10.53;5.50;;;;;;;3.46;100.00;95544.25;5031826;28;20478;-74
2022/11/24 04:03:22;;;;;;;8.17;5.40;;;;;;;3.16;100.00;95509.22;5032034;28;20802;-74
2022/11/24 04:05:49;;;;;;;8.13;4.70;;;;;;;3.21;100.00;95511.72;5033128;28;20458;-74
2022/11/24 04:08:16;;;;;;;9.63;5.73;;;;;;;3.25;100.00;95517.09;5017909;28;20462;-74
2022/11/24 04:10:43;;;;;;;9.27;4.80;;;;;;;3.48;100.00;95538.75;5026944;28;20446;-74
2022/11/24 04:13:15;;;;;;;7.50;5.23;;;;;;;3.28;100.00;95494.84;5033603;28;20430;-73
2022/11/24 04:15:42;;;;;;;5.67;4.30;;;;;;;3.63;100.00;95524.53;5045200;28;20940;-74
2022/11/24 04:18:10;;;;;;;8.63;4.93;;;;;;;3.74;100.00;95544.88;5032253;28;20466;-74
2022/11/24 04:20:38;;;;;;;7.90;4.53;;;;;;;3.67;100.00;95538.53;5034472;28;20457;-74
2022/11/24 04:23:05;;;;;;;11.70;4.70;;;;;;;3.75;100.00;95533.34;5043162;28;20429;-74
2022/11/24 04:25:32;;;;;;;6.10;4.90;;;;;;;3.76;100.00;95555.03;5034826;28;20826;-74
2022/11/24 04:27:59;;;;;;;11.97;4.77;;;;;;;3.59;100.00;95518.34;5042262;28;20477;-74
2022/11/24 04:30:28;;;;;;;10.97;4.73;;;;;;;3.67;100.00;95554.19;5033044;28;20437;-74
2022/11/24 04:32:55;;;;;;;36.40;24.87;;;;;;;3.90;100.00;95566.16;5031588;28;20433;-74
2022/11/24 04:35:23;;;;;;;25.10;15.87;;;;;;;3.67;100.00;95548.97;5014935;28;20446;-74
2022/11/24 04:37:49;;;;;;;12.43;9.50;;;;;;;3.69;100.00;95552.81;5041671;28;20467;-74
2022/11/24 04:40:17;;;;;;;11.03;8.30;;;;;;;3.51;100.00;95520.63;5048919;28;20431;-74
2022/11/24 04:42:51;;;;;;;8.00;4.57;;;;;;;3.97;100.00;95558.63;5031301;28;20521;-75
2022/11/24 04:45:18;;;;;;;4.23;3.67;;;;;;;4.08;100.00;95546.81;5032400;28;20973;-74
2022/11/24 04:47:44;;;;;;;11.60;4.20;;;;;;;4.08;100.00;95535.59;5014183;28;20469;-74
2022/11/24 04:50:11;;;;;;;9.10;4.07;;;;;;;3.96;100.00;95559.69;5031625;28;20994;-74
2022/11/24 04:52:38;;;;;;;8.80;4.90;;;;;;;3.90;100.00;95579.22;5031394;28;20872;-78
2022/11/24 04:55:05;;;;;;;12.53;5.20;;;;;;;3.86;100.00;95581.66;5032315;28;20462;-74
2022/11/24 04:57:31;;;;;;;7.53;4.30;;;;;;;4.02;100.00;95586.50;5031167;28;20441;-74
2022/11/24 04:59:58;;;;;;;7.10;4.10;;;;;;;4.05;100.00;95576.19;5032686;28;20498;-74
2022/11/24 05:02:25;;;;;;;5.27;3.73;;;;;;;4.36;100.00;95601.53;5031196;28;20446;-74
2022/11/24 05:04:51;;;;;;;6.83;4.23;;;;;;;4.23;100.00;95571.03;5043582;28;20430;-73
2022/11/24 05:07:18;;;;;;;11.00;3.83;;;;;;;4.45;100.00;95597.09;5032027;28;20438;-73
2022/11/24 05:12:31;;;;;;;6.00;3.63;;;;;;;4.60;100.00;95622.06;5032079;28;20510;-74
2022/11/24 05:14:58;;;;;;;5.37;3.03;;;;;;;4.61;100.00;95626.22;5014349;28;20430;-74
2022/11/24 05:17:34;;;;;;;10.33;4.03;;;;;;;4.63;100.00;95627.47;5031963;28;20426;-74
2022/11/24 05:20:01;;;;;;;3.57;2.70;;;;;;;4.47;100.00;95600.19;5014173;28;20509;-74
2022/11/24 05:22:28;;;;;;;7.67;5.03;;;;;;;4.42;100.00;95595.88;5035710;28;20957;-74
2022/11/24 05:24:55;;;;;;;5.13;4.07;;;;;;;4.55;100.00;95620.38;5038405;28;20435;-74
2022/11/24 05:27:22;;;;;;;6.20;3.67;;;;;;;4.70;100.00;95630.41;5030301;28;20442;-73
2022/11/24 05:29:49;;;;;;;7.07;3.53;;;;;;;4.63;100.00;95630.06;5030392;28;20446;-73
2022/11/24 05:32:15;;;;;;;4.93;3.63;;;;;;;4.67;100.00;95628.41;5030519;28;20442;-73
2022/11/24 05:34:42;;;;;;;5.77;5.23;;;;;;;4.75;100.00;95643.34;5030443;28;20449;-73
2022/11/24 05:37:09;;;;;;;9.40;4.40;;;;;;;4.75;100.00;95647.81;5013872;28;20434;-73
2022/11/24 05:39:36;;;;;;;17.00;10.60;;;;;;;4.61;100.00;95621.00;5030128;28;20938;-73
2022/11/24 05:42:39;;;;;;;10.60;4.50;;;;;;;4.63;100.00;95621.44;5031500;28;20438;-74
2022/11/24 05:44:51;;;;;;;6.13;4.13;;;;;;;4.58;100.00;95619.75;5031338;28;20492;-74
2022/11/24 05:47:19;;;;;;;7.03;3.53;;;;;;;4.75;100.00;95648.59;5013451;28;20858;-74
2022/11/24 05:49:46;;;;;;;8.73;3.80;;;;;;;4.78;100.00;95649.03;5032846;28;20461;-74
2022/11/24 05:52:13;;;;;;;7.50;4.10;;;;;;;4.63;100.00;95624.84;5049829;28;20528;-74
2022/11/24 05:54:39;;;;;;;6.60;5.83;;;;;;;4.70;100.00;95630.41;5036454;28;20537;-74
2022/11/24 05:57:06;;;;;;;10.07;3.73;;;;;;;4.68;100.00;95640.41;5051184;28;20794;-74
2022/11/24 05:59:33;;;;;;;11.03;4.17;;;;;;;4.75;100.00;95648.59;5045325;28;20461;-74
2022/11/24 06:01:59;;;;;;;8.03;4.80;;;;;;;4.77;100.00;95642.28;5013542;28;20442;-74
2022/11/24 06:04:27;;;;;;;11.87;4.30;;;;;;;4.90;100.00;95673.56;5034339;28;20494;-73
2022/11/24 06:06:53;;;;;;;19.23;5.10;;;;;;;4.77;100.00;95647.50;5047748;28;20462;-75
2022/11/24 06:09:20;;;;;;;8.53;3.90;;;;;;;4.78;100.00;95643.81;5034142;28;20460;-75
2022/11/24 06:11:47;;;;;;;10.53;4.30;;;;;;;4.98;100.00;95683.28;5049789;28;20526;-75
2022/11/24 06:14:14;;;;;;;6.73;4.17;;;;;;;4.89;100.00;95676.50;5049407;28;20442;-75
2022/11/24 06:16:41;;;;;;;11.77;4.30;;;;;;;5.04;100.00;95691.78;5039164;28;20445;-75
2022/11/24 06:19:09;;;;;;;10.13;5.30;;;;;;;4.87;100.00;95670.78;5034486;28;20510;-75
2022/11/24 06:21:36;;;;;;;6.43;3.93;;;;;;;4.99;100.00;95689.31;5032996;28;20464;-75
2022/11/24 06:24:03;;;;;;;7.60;4.20;;;;;;;4.89;100.00;95674.66;5032095;28;20879;-75
2022/11/24 06:26:30;;;;;;;12.83;4.60;;;;;;;5.05;100.00;95706.41;5040202;28;20530;-75
2022/11/24 06:28:57;;;;;;;17.67;4.57;;;;;;;4.87;100.00;95673.41;5031573;28;20468;-75
2022/11/24 06:31:23;;;;;;;11.80;4.90;;;;;;;4.93;100.00;95691.28;5030788;28;20440;-75
2022/11/24 06:33:50;;;;;;;9.03;4.53;;;;;;;5.05;100.00;95699.31;5042791;28;20438;-75
2022/11/24 06:36:17;;;;;;;10.80;4.13;;;;;;;5.04;100.00;95700.41;5029484;28;20779;-77
2022/11/24 06:38:43;;;;;;;9.37;4.70;;;;;;;5.13;100.00;95712.75;5029580;28;20450;-77
2022/11/24 06:41:12;;;;;;;10.53;4.00;;;;;;;5.20;100.00;95729.56;5041242;28;20441;-77
2022/11/24 06:43:39;;;;;;;9.67;5.43;;;;;;;5.20;100.00;95721.69;5030404;28;20445;-77
2022/11/24 06:46:06;;;;;;;7.80;5.10;;;;;;;5.13;100.00;95720.59;5029556;28;20454;-77
2022/11/24 06:48:33;;;;;;;6.37;4.77;;;;;;;4.98;100.00;95688.53;5030858;28;20446;-77
2022/11/24 06:51:01;;;;;;;9.47;5.60;;;;;;;5.17;100.00;95729.41;5012981;28;20449;-77
2022/11/24 06:53:36;;;;;;;17.47;6.67;;;;;;;5.17;100.00;95721.53;5048439;28;20790;-77
2022/11/24 06:56:08;;;;;;;17.83;5.20;;;;;;;5.17;100.00;95734.63;5037141;28;20468;-77
2022/11/24 06:58:44;;;;;;;9.60;4.93;;;;;;;5.24;100.00;95725.25;5038028;28;20457;-76
2022/11/24 07:01:21;;;;;;;14.17;4.87;;;;;;;5.27;100.00;95735.13;5033026;28;20434;-76
2022/11/24 07:03:49;;;;;;;11.57;4.30;;;;;;;5.30;100.00;95734.50;5029652;28;20418;-76
2022/11/24 07:06:17;;;;;;;7.63;5.00;;;;;;;5.28;100.00;95736.66;5035097;28;20824;-77
2022/11/24 07:08:44;;;;;;;12.23;4.27;;;;;;;5.25;100.00;95739.13;5038414;28;20450;-76
2022/11/24 07:11:14;;;;;;;8.57;3.80;;;;;;;5.12;100.00;95732.16;5030707;28;20441;-76
2022/11/24 07:13:42;;;;;;;12.03;5.53;;;;;;;5.26;100.00;95744.06;5033285;28;20438;-76
2022/11/24 07:16:21;;;;;;;9.73;4.83;;;;;;;5.14;100.00;95727.38;5039842;28;20428;-76
2022/11/24 07:18:53;;;;;;;9.93;5.73;;;;;;;5.16;100.00;95733.88;5051415;28;20559;-77
2022/11/24 07:21:21;;;;;;;15.20;4.40;;;;;;;5.19;100.00;95732.47;5018177;28;20566;-76
2022/11/24 07:23:49;;;;;;;17.87;5.17;;;;;;;5.24;100.00;95740.97;5018012;28;20445;-76
2022/11/24 07:26:17;;;;;;;12.33;5.40;;;;;;;5.30;100.00;95745.00;5033958;28;20917;-76
2022/11/24 07:28:43;;;;;;;13.83;5.27;;;;;;;4.56;100.00;95634.22;5033777;28;20798;-76
2022/11/24 07:31:13;;;;;;;16.27;4.80;;;;;;;5.30;100.00;95754.69;5035330;28;20430;-77
2022/11/24 07:33:41;;;;;;;16.00;4.50;;;;;;;5.14;100.00;95730.00;5031045;28;20755;-76
2022/11/24 07:36:08;;;;;;;9.87;4.57;;;;;;;4.97;100.00;95720.28;5034035;28;20441;-77
2022/11/24 07:38:35;;;;;;;13.50;6.10;;;;;;;5.30;100.00;95760.72;5030693;28;20473;-77
2022/11/24 07:41:08;;;;;;;10.60;4.90;;;;;;;5.24;100.00;95748.84;5034055;28;20430;-77
2022/11/24 07:43:36;;;;;;;16.50;7.40;;;;;;;5.39;100.00;95773.06;5052216;28;20483;-77
2022/11/24 07:46:05;;;;;;;17.47;9.73;;;;;;;5.38;100.00;95777.53;5037304;28;20471;-76
2022/11/24 07:48:33;;;;;;;35.27;21.30;;;;;;;5.18;100.00;95747.44;5055711;28;20457;-77
2022/11/24 07:51:01;;;;;;;27.50;18.10;;;;;;;5.40;100.00;95779.84;5041880;28;20433;-77
2022/11/24 07:53:28;;;;;;;10.70;8.63;;;;;;;5.16;100.00;95759.28;5033502;28;20430;-77
2022/11/24 07:55:58;;;;;;;25.87;6.40;;;;;;;5.27;100.00;95784.91;5029559;28;20460;-77
2022/11/24 07:58:27;;;;;;;12.70;7.10;;;;;;;5.31;100.00;95771.97;5053764;28;20972;-77
2022/11/24 08:00:59;;;;;;;15.20;6.77;;;;;;;5.29;100.00;95774.91;5023037;28;21000;-77
2022/11/24 08:03:25;;;;;;;14.90;7.87;;;;;;;5.25;100.00;95745.16;5034277;28;20517;-77
2022/11/24 08:06:01;;;;;;;29.23;6.27;;;;;;;5.33;100.00;95762.72;5020102;28;20516;-77
2022/11/24 08:08:48;;;;;;;12.97;6.57;;;;;;;5.13;100.00;95750.19;5021355;28;20843;-77
2022/11/24 08:11:16;;;;;;;15.40;4.90;;;;;;;5.58;100.00;95787.44;5034046;28;20440;-77
2022/11/24 08:13:43;;;;;;;11.60;5.17;;;;;;;5.42;100.00;95762.75;5035776;28;20434;-77
2022/11/24 08:16:13;;;;;;;21.03;5.03;;;;;;;5.44;100.00;95765.03;5034448;28;20430;-76
2022/11/24 08:18:41;;;;;;;14.50;5.03;;;;;;;5.38;100.00;95751.34;5035279;28;21051;-77
2022/11/24 08:21:12;;;;;;;27.30;6.07;;;;;;;5.60;100.00;95787.13;5048970;28;20427;-74
2022/11/24 08:23:39;;;;;;;10.17;5.27;;;;;;;5.62;100.00;95792.84;5040773;28;20525;-76
2022/11/24 08:26:09;;;;;;;12.10;5.90;;;;;;;5.68;100.00;95802.09;5044801;28;20492;-76
2022/11/24 08:28:37;;;;;;;14.87;5.50;;;;;;;5.49;100.00;95793.75;5060642;28;20896;-77
2022/11/24 08:31:12;;;;;;;9.50;5.10;;;;;;;5.47;100.00;95791.41;5035081;28;20438;-77
2022/11/24 08:33:39;;;;;;;5.43;4.93;;;;;;;5.53;100.00;95805.16;5034628;28;20885;-77
2022/11/24 08:36:12;;;;;;;16.23;4.63;;;;;;;5.55;100.00;95803.00;5014097;28;20526;-77
2022/11/24 08:38:40;;;;;;;15.93;5.60;;;;;;;5.33;100.00;95769.81;5044139;28;20482;-77
2022/11/24 08:41:09;;;;;;;12.80;5.03;;;;;;;5.43;100.00;95779.22;5037738;28;20525;-77
2022/11/24 08:43:37;;;;;;;9.60;5.40;;;;;;;5.55;100.00;95797.75;5037177;28;20464;-77
2022/11/24 08:46:08;;;;;;;12.57;5.87;;;;;;;5.49;100.00;95802.38;5029847;28;20453;-77
2022/11/24 08:48:35;;;;;;;13.43;5.67;;;;;;;5.51;100.00;95792.38;5050221;28;20449;-77
2022/11/24 08:51:07;;;;;;;10.30;5.10;;;;;;;5.30;100.00;95765.94;5035154;28;20891;-77
2022/11/24 08:53:34;;;;;;;16.83;5.80;;;;;;;5.41;100.00;95770.91;5034484;28;20438;-77
2022/11/24 08:56:03;;;;;;;15.47;5.50;;;;;;;5.20;100.00;95747.88;5034726;28;20429;-78
2022/11/24 08:58:30;;;;;;;9.37;4.10;;;;;;;5.14;100.00;95745.72;5033559;28;20574;-77
2022/11/24 09:01:12;;;;;;;10.53;4.40;;;;;;;5.51;100.00;95795.00;5033028;28;20477;-77
2022/11/24 09:03:40;;;;;;;11.53;5.37;;;;;;;5.30;100.00;95786.91;5033131;28;20437;-77
2022/11/24 09:06:17;;;;;;;11.90;4.83;;;;;;;5.31;100.00;95788.47;5015352;28;20475;-77
2022/11/24 09:08:44;;;;;;;14.00;5.30;;;;;;;5.14;100.00;95764.84;5032730;28;20814;-77
2022/11/24 09:11:14;;;;;;;18.30;6.03;;;;;;;5.45;100.00;95780.47;5036208;28;20531;-77
2022/11/24 09:13:41;;;;;;;13.50;6.37;;;;;;;5.39;100.00;95763.34;5040944;28;20434;-77
2022/11/24 09:16:17;;;;;;;10.50;4.70;;;;;;;5.64;100.00;95796.69;5033105;28;20438;-77
2022/11/24 09:18:45;;;;;;;8.23;4.90;;;;;;;5.48;100.00;95772.00;5048446;28;20472;-77
2022/11/24 09:21:13;;;;;;;279.37;194.57;;;;;;;5.40;100.00;95756.25;5054196;28;20444;-77
2022/11/24 09:23:40;;;;;;;113.10;84.07;;;;;;;5.60;100.00;95806.25;5052931;28;20929;-77
2022/11/24 09:26:08;;;;;;;17.00;8.73;;;;;;;5.65;100.00;95815.81;5032487;28;20438;-77
2022/11/24 09:28:35;;;;;;;12.47;5.40;;;;;;;5.72;100.00;95816.13;5047528;28;20473;-77
2022/11/24 09:31:08;;;;;;;10.23;4.47;;;;;;;5.63;100.00;95802.25;5044366;28;20446;-77
2022/11/24 09:33:36;;;;;;;13.10;4.80;;;;;;;5.77;100.00;95821.25;5032025;28;21006;-77
2022/11/24 09:36:03;;;;;;;6.60;3.50;;;;;;;5.76;100.00;95813.69;5015660;28;20444;-77
2022/11/24 09:38:30;;;;;;;16.53;4.07;;;;;;;5.69;100.00;95798.41;5015373;28;20454;-77
2022/11/24 09:41:31;;;;;;;12.83;4.57;;;;;;;5.74;100.00;95798.22;5031952;28;20441;-77
2022/11/24 09:44:17;;;;;;;5.10;3.00;;;;;;;5.95;100.00;95823.91;5032305;28;20430;-77
2022/11/24 09:46:52;;;;;;;12.63;3.90;;;;;;;5.93;100.00;95824.22;5015620;28;20501;-77
2022/11/24 09:49:35;;;;;;;13.40;4.30;;;;;;;5.82;100.00;95812.44;5015587;28;20457;-77
2022/11/24 09:52:09;;;;;;;3.37;3.07;;;;;;;5.77;100.00;95809.97;5032425;28;20426;-77
2022/11/24 09:54:43;;;;;;;10.90;3.93;;;;;;;5.85;100.00;95814.44;5031560;28;20467;-77
2022/11/24 09:57:11;;;;;;;7.87;3.47;;;;;;;5.89;100.00;95820.63;5031295;28;20450;-77
2022/11/24 09:59:40;;;;;;;14.10;3.57;;;;;;;5.87;100.00;95826.16;5031445;28;20466;-77
2022/11/24 10:02:12;;;;;;;6.40;3.13;;;;;;;5.84;100.00;95837.28;5031661;28;20462;-77
2022/11/24 10:04:41;;;;;;;9.87;5.03;;;;;;;5.59;100.00;95809.16;5050356;28;20453;-77
2022/11/24 10:07:24;;;;;;;4.47;2.70;;;;;;;5.83;100.00;95846.22;5046403;28;20973;-77
2022/11/24 10:10:17;;;;;;;7.40;4.10;;;;;;;5.76;100.00;95840.69;5031589;28;20472;-77
2022/11/24 10:13:28;;;;;;;10.77;3.07;;;;;;;5.77;100.00;95846.69;5033149;28;20441;-77
2022/11/24 10:16:32;;;;;;;9.13;3.53;;;;;;;5.82;100.00;95849.16;4994340;28;20458;-77
2022/11/24 10:19:11;;;;;;;12.43;5.17;;;;;;;5.59;100.00;95814.41;5051024;28;20526;-77
2022/11/24 10:22:22;;;;;;;14.73;3.70;;;;;;;5.84;100.00;95852.25;5034104;28;21064;-77
2022/11/24 10:25:17;;;;;;;11.77;4.03;;;;;;;5.77;100.00;95842.22;5051075;28;20524;-77
2022/11/24 10:27:51;;;;;;;13.50;4.40;;;;;;;5.90;100.00;95861.56;5052421;28;20472;-77
2022/11/24 10:30:22;;;;;;;11.43;2.87;;;;;;;5.60;100.00;95813.34;5048593;28;20442;-77
2022/11/24 10:33:25;;;;;;;6.77;4.13;;;;;;;5.51;100.00;95809.94;5031143;28;20488;-77
2022/11/24 10:36:15;;;;;;;8.67;3.27;;;;;;;5.78;100.00;95837.75;5031472;28;20499;-77
2022/11/24 10:39:04;;;;;;;7.97;3.37;;;;;;;5.68;100.00;95819.69;5038345;28;20441;-76
2022/11/24 10:41:51;;;;;;;4.87;3.13;;;;;;;5.76;100.00;95840.69;5050894;28;20540;-77
2022/11/24 10:44:18;;;;;;;51.70;28.27;;;;;;;5.57;100.00;95801.63;5051896;28;20421;-76
2022/11/24 10:46:44;;;;;;;240.07;141.90;;;;;;;5.56;100.00;95804.53;5045772;28;20465;-79
2022/11/24 10:49:32;;;;;;;34.83;25.23;;;;;;;5.80;100.00;95825.88;5011186;28;20553;-76
2022/11/24 10:52:00;;;;;;;44.17;36.77;;;;;;;5.96;100.00;95854.31;4996161;28;20484;-77
2022/11/24 10:54:27;;;;;;;19.87;16.10;;;;;;;5.86;100.00;95850.84;5032107;28;20450;-77
2022/11/24 10:56:54;;;;;;;20.63;14.60;;;;;;;5.73;100.00;95841.28;5051152;28;20437;-77
2022/11/24 10:59:27;;;;;;;11.50;6.63;;;;;;;5.78;100.00;95845.63;5037032;28;20458;-77
2022/11/24 11:01:55;;;;;;;9.97;7.67;;;;;;;5.71;100.00;95832.94;5014137;28;20923;-77
2022/11/24 11:04:42;;;;;;;7.27;5.20;;;;;;;5.81;100.00;95851.03;5030828;28;20833;-77
2022/11/24 11:07:20;;;;;;;9.10;2.73;;;;;;;5.76;100.00;95845.16;5025795;28;20591;-77
2022/11/24 11:09:48;;;;;;;7.40;5.30;;;;;;;5.51;100.00;95818.59;5014500;28;20458;-77
2022/11/24 11:12:41;;;;;;;10.60;3.10;;;;;;;5.76;100.00;95855.66;5024410;28;20440;-77
2022/11/24 11:15:27;;;;;;;9.40;3.83;;;;;;;5.54;100.00;95835.53;5047599;28;20433;-76
2022/11/24 11:17:59;;;;;;;12.33;4.80;;;;;;;5.77;100.00;95857.19;5054424;28;20441;-77
2022/11/24 11:20:31;;;;;;;40.67;24.97;;;;;;;5.71;100.00;95850.53;5049488;28;20479;-77
2022/11/24 11:23:03;;;;;;;126.67;73.50;;;;;;;5.72;100.00;95849.44;5031029;28;20441;-77
2022/11/24 11:25:32;;;;;;;6.77;3.10;;;;;;;5.84;100.00;95857.50;5016671;28;20442;-77
2022/11/24 11:28:21;;;;;;;9.83;3.10;;;;;;;5.60;100.00;95818.56;5050144;28;20497;-77
2022/11/24 11:31:04;;;;;;;3.20;2.30;;;;;;;5.56;100.00;95822.91;5050636;28;20488;-77
2022/11/24 11:34:11;;;;;;;5.73;3.77;;;;;;;5.77;100.00;95857.97;5036820;28;20430;-77
2022/11/24 11:36:52;;;;;;;3.83;3.43;;;;;;;5.61;100.00;95828.00;5049247;28;20486;-77
2022/11/24 11:39:23;;;;;;;11.20;2.40;;;;;;;5.85;100.00;95865.06;5024431;28;20450;-77
2022/11/24 11:41:59;;;;;;;2.83;1.97;;;;;;;5.90;100.00;95872.81;5047447;28;20543;-76
2022/11/24 11:44:38;;;;;;;7.07;1.80;;;;;;;5.92;100.00;95868.03;5034037;28;20440;-76
2022/11/24 11:47:28;;;;;;;5.73;2.20;;;;;;;5.95;100.00;95871.91;5002063;28;20513;-77